sensor_id;sensor_type;location;lat;lon;timestamp;pressure;altitude;pressure_sealevel;temperature;humidity
53868;BME280;41577;47.470;19.080;2022-08-19T00:00:04;99655.56;;;26.53;46.00
53868;BME280;41577;47.470;19.080;2022-08-19T00:00:20;99654.75;;;26.52;46.01
53868;BME280;41577;47.470;19.080;2022-08-19T00:00:35;99658.31;;;26.53;45.98
53868;BME280;41577;47.470;19.080;2022-08-19T00:00:50;99650.09;;;26.53;45.83
53868;BME280;41577;47.470;19.080;2022-08-19T00:01:04;99655.56;;;26.53;45.95
53868;BME280;41577;47.470;19.080;2022-08-19T00:01:18;99652.31;;;26.50;46.06
53868;BME280;41577;47.470;19.080;2022-08-19T00:01:34;99645.22;;;26.49;46.01
53868;BME280;41577;47.470;19.080;2022-08-19T00:01:50;99647.16;;;26.49;46.12
53868;BME280;41577;47.470;19.080;2022-08-19T00:02:04;99647.16;;;26.49;45.98
53868;BME280;41577;47.470;19.080;2022-08-19T00:02:20;99651.50;;;26.50;46.03
53868;BME280;41577;47.470;19.080;2022-08-19T00:02:34;99651.50;;;26.50;45.96
53868;BME280;41577;47.470;19.080;2022-08-19T00:02:49;99665.19;;;26.50;45.98
53868;BME280;41577;47.470;19.080;2022-08-19T00:03:03;99650.69;;;26.49;45.98
53868;BME280;41577;47.470;19.080;2022-08-19T00:03:18;99658.91;;;26.49;45.95
53868;BME280;41577;47.470;19.080;2022-08-19T00:03:32;99649.59;;;26.50;45.91
53868;BME280;41577;47.470;19.080;2022-08-19T00:03:46;99646.84;;;26.50;45.92
53868;BME280;41577;47.470;19.080;2022-08-19T00:04:03;99654.22;;;26.50;45.94
53868;BME280;41577;47.470;19.080;2022-08-19T00:04:21;99659.72;;;26.50;45.94
53868;BME280;41577;47.470;19.080;2022-08-19T00:04:36;99648.75;;;26.50;46.02
53868;BME280;41577;47.470;19.080;2022-08-19T00:04:50;99653.44;;;26.49;46.02
53868;BME280;41577;47.470;19.080;2022-08-19T00:05:06;99660.03;;;26.48;45.79
53868;BME280;41577;47.470;19.080;2022-08-19T00:05:21;99655.38;;;26.49;46.14
53868;BME280;41577;47.470;19.080;2022-08-19T00:05:36;99651.81;;;26.48;46.16
53868;BME280;41577;47.470;19.080;2022-08-19T00:05:51;99655.66;;;26.47;46.17
53868;BME280;41577;47.470;19.080;2022-08-19T00:06:05;99658.41;;;26.47;46.07
53868;BME280;41577;47.470;19.080;2022-08-19T00:06:22;99659.53;;;26.46;46.03
53868;BME280;41577;47.470;19.080;2022-08-19T00:06:38;99659.09;;;26.53;46.06
53868;BME280;41577;47.470;19.080;2022-08-19T00:06:55;99655.56;;;26.53;45.96
53868;BME280;41577;47.470;19.080;2022-08-19T00:07:10;99662.94;;;26.52;45.87
53868;BME280;41577;47.470;19.080;2022-08-19T00:07:24;99653.94;;;26.52;46.00
53868;BME280;41577;47.470;19.080;2022-08-19T00:07:39;99655.06;;;26.50;45.76
53868;BME280;41577;47.470;19.080;2022-08-19T00:07:55;99660.53;;;26.50;45.91
53868;BME280;41577;47.470;19.080;2022-08-19T00:08:11;99655.06;;;26.50;45.98
53868;BME280;41577;47.470;19.080;2022-08-19T00:08:26;99656.16;;;26.49;46.07
53868;BME280;41577;47.470;19.080;2022-08-19T00:08:42;99655.38;;;26.49;45.94
53868;BME280;41577;47.470;19.080;2022-08-19T00:08:58;99660.84;;;26.49;45.98
53868;BME280;41577;47.470;19.080;2022-08-19T00:09:16;99655.38;;;26.49;46.09
53868;BME280;41577;47.470;19.080;2022-08-19T00:09:30;99653.75;;;26.48;46.11
53868;BME280;41577;47.470;19.080;2022-08-19T00:09:45;99660.03;;;26.48;46.01
53868;BME280;41577;47.470;19.080;2022-08-19T00:10:00;99657.59;;;26.47;46.16
53868;BME280;41577;47.470;19.080;2022-08-19T00:10:16;99655.66;;;26.47;46.15
53868;BME280;41577;47.470;19.080;2022-08-19T00:10:30;99656.81;;;26.46;46.18
53868;BME280;41577;47.470;19.080;2022-08-19T00:10:45;99661.97;;;26.48;46.22
53868;BME280;41577;47.470;19.080;2022-08-19T00:11:01;99659.53;;;26.46;46.11
53868;BME280;41577;47.470;19.080;2022-08-19T00:11:16;99656.81;;;26.46;46.22
53868;BME280;41577;47.470;19.080;2022-08-19T00:11:33;99656.81;;;26.46;46.15
53868;BME280;41577;47.470;19.080;2022-08-19T00:11:48;99657.09;;;26.45;46.38
53868;BME280;41577;47.470;19.080;2022-08-19T00:12:03;99648.59;;;26.46;46.11
53868;BME280;41577;47.470;19.080;2022-08-19T00:12:18;99661.56;;;26.55;46.01
53868;BME280;41577;47.470;19.080;2022-08-19T00:12:32;99655.56;;;26.53;46.00
53868;BME280;41577;47.470;19.080;2022-08-19T00:12:47;99654.44;;;26.54;45.87
53868;BME280;41577;47.470;19.080;2022-08-19T00:13:01;99658.31;;;26.53;45.95
53868;BME280;41577;47.470;19.080;2022-08-19T00:13:15;99656.97;;;26.50;46.32
53868;BME280;41577;47.470;19.080;2022-08-19T00:13:30;99658.91;;;26.49;46.16
53868;BME280;41577;47.470;19.080;2022-08-19T00:13:45;99657.31;;;26.48;46.09
53868;BME280;41577;47.470;19.080;2022-08-19T00:14:03;99650.53;;;26.46;46.10
53868;BME280;41577;47.470;19.080;2022-08-19T00:14:18;99654.06;;;26.46;46.12
53868;BME280;41577;47.470;19.080;2022-08-19T00:14:34;99652.44;;;26.45;46.19
53868;BME280;41577;47.470;19.080;2022-08-19T00:14:51;99660.66;;;26.45;46.13
53868;BME280;41577;47.470;19.080;2022-08-19T00:15:12;99653.56;;;26.44;46.23
53868;BME280;41577;47.470;19.080;2022-08-19T00:15:26;99653.25;;;26.46;46.27
53868;BME280;41577;47.470;19.080;2022-08-19T00:15:41;99645.56;;;26.48;46.08
53868;BME280;41577;47.470;19.080;2022-08-19T00:15:58;99648.47;;;26.52;46.01
53868;BME280;41577;47.470;19.080;2022-08-19T00:16:14;99652.31;;;26.50;45.89
53868;BME280;41577;47.470;19.080;2022-08-19T00:16:29;99652.31;;;26.50;45.94
53868;BME280;41577;47.470;19.080;2022-08-19T00:16:44;99659.41;;;26.52;46.13
53868;BME280;41577;47.470;19.080;2022-08-19T00:17:00;99650.69;;;26.49;46.04
53868;BME280;41577;47.470;19.080;2022-08-19T00:17:14;99653.44;;;26.49;46.14
53868;BME280;41577;47.470;19.080;2022-08-19T00:17:28;99653.75;;;26.48;46.16
53868;BME280;41577;47.470;19.080;2022-08-19T00:17:44;99652.13;;;26.47;46.21
53868;BME280;41577;47.470;19.080;2022-08-19T00:17:58;99649.38;;;26.47;46.33
53868;BME280;41577;47.470;19.080;2022-08-19T00:18:12;99654.88;;;26.47;46.30
53868;BME280;41577;47.470;19.080;2022-08-19T00:18:26;99645.03;;;26.46;46.37
53868;BME280;41577;47.470;19.080;2022-08-19T00:18:40;99655.16;;;26.45;46.46
53868;BME280;41577;47.470;19.080;2022-08-19T00:18:55;99648.09;;;26.44;46.40
53868;BME280;41577;47.470;19.080;2022-08-19T00:19:10;99651.03;;;26.48;46.17
53868;BME280;41577;47.470;19.080;2022-08-19T00:19:25;99654.22;;;26.50;46.15
53868;BME280;41577;47.470;19.080;2022-08-19T00:19:40;99658.09;;;26.49;46.13
53868;BME280;41577;47.470;19.080;2022-08-19T00:19:55;99656.16;;;26.49;46.16
53868;BME280;41577;47.470;19.080;2022-08-19T00:20:14;99658.09;;;26.49;46.12
53868;BME280;41577;47.470;19.080;2022-08-19T00:20:31;99655.66;;;26.47;46.23
53868;BME280;41577;47.470;19.080;2022-08-19T00:20:45;99654.88;;;26.47;46.17
53868;BME280;41577;47.470;19.080;2022-08-19T00:21:01;99653.25;;;26.46;46.00
53868;BME280;41577;47.470;19.080;2022-08-19T00:21:15;99660.66;;;26.45;46.31
53868;BME280;41577;47.470;19.080;2022-08-19T00:21:29;99660.97;;;26.44;46.10
53868;BME280;41577;47.470;19.080;2022-08-19T00:21:44;99661.78;;;26.44;46.38
53868;BME280;41577;47.470;19.080;2022-08-19T00:21:58;99660.13;;;26.43;46.25
53868;BME280;41577;47.470;19.080;2022-08-19T00:22:13;99662.06;;;26.43;46.32
53868;BME280;41577;47.470;19.080;2022-08-19T00:22:29;99662.06;;;26.43;46.36
53868;BME280;41577;47.470;19.080;2022-08-19T00:22:45;99665.94;;;26.42;46.35
53868;BME280;41577;47.470;19.080;2022-08-19T00:22:59;99658.03;;;26.40;46.59
53868;BME280;41577;47.470;19.080;2022-08-19T00:23:14;99653.69;;;26.39;46.62
53868;BME280;41577;47.470;19.080;2022-08-19T00:23:29;99663.00;;;26.38;46.51
53868;BME280;41577;47.470;19.080;2022-08-19T00:23:48;99653.19;;;26.37;46.60
53868;BME280;41577;47.470;19.080;2022-08-19T00:24:03;99659.75;;;26.36;46.66
53868;BME280;41577;47.470;19.080;2022-08-19T00:24:17;99649.94;;;26.35;46.66
53868;BME280;41577;47.470;19.080;2022-08-19T00:24:32;99657.34;;;26.35;46.62
53868;BME280;41577;47.470;19.080;2022-08-19T00:24:46;99654.91;;;26.33;46.67
53868;BME280;41577;47.470;19.080;2022-08-19T00:25:02;99658.47;;;26.34;46.56
53868;BME280;41577;47.470;19.080;2022-08-19T00:25:17;99659.25;;;26.34;46.56
53868;BME280;41577;47.470;19.080;2022-08-19T00:25:32;99651.88;;;26.35;46.61
53868;BME280;41577;47.470;19.080;2022-08-19T00:25:47;99659.25;;;26.34;46.48
53868;BME280;41577;47.470;19.080;2022-08-19T00:26:01;99661.19;;;26.34;46.48
53868;BME280;41577;47.470;19.080;2022-08-19T00:26:16;99651.88;;;26.35;46.48
53868;BME280;41577;47.470;19.080;2022-08-19T00:26:31;99651.88;;;26.35;46.48
53868;BME280;41577;47.470;19.080;2022-08-19T00:26:46;99654.91;;;26.33;46.44
53868;BME280;41577;47.470;19.080;2022-08-19T00:27:00;99657.66;;;26.33;46.52
53868;BME280;41577;47.470;19.080;2022-08-19T00:27:15;99654.91;;;26.33;46.60
53868;BME280;41577;47.470;19.080;2022-08-19T00:27:29;99654.13;;;26.33;46.60
53868;BME280;41577;47.470;19.080;2022-08-19T00:27:44;99656.06;;;26.32;46.59
53868;BME280;41577;47.470;19.080;2022-08-19T00:27:59;99655.22;;;26.32;46.59
53868;BME280;41577;47.470;19.080;2022-08-19T00:28:13;99654.91;;;26.33;46.62
53868;BME280;41577;47.470;19.080;2022-08-19T00:28:29;99658.78;;;26.32;46.65
53868;BME280;41577;47.470;19.080;2022-08-19T00:28:44;99660.41;;;26.33;46.52
53868;BME280;41577;47.470;19.080;2022-08-19T00:28:58;99656.06;;;26.32;46.71
53868;BME280;41577;47.470;19.080;2022-08-19T00:29:16;99655.22;;;26.32;46.72
53868;BME280;41577;47.470;19.080;2022-08-19T00:29:31;99663.44;;;26.32;46.68
53868;BME280;41577;47.470;19.080;2022-08-19T00:29:45;99657.16;;;26.31;46.85
53868;BME280;41577;47.470;19.080;2022-08-19T00:30:00;99659.09;;;26.31;46.85
53868;BME280;41577;47.470;19.080;2022-08-19T00:30:17;99651.16;;;26.29;46.75
53868;BME280;41577;47.470;19.080;2022-08-19T00:30:32;99660.19;;;26.29;46.79
53868;BME280;41577;47.470;19.080;2022-08-19T00:30:47;99659.72;;;26.27;46.73
53868;BME280;41577;47.470;19.080;2022-08-19T00:31:03;99663.25;;;26.28;46.75
53868;BME280;41577;47.470;19.080;2022-08-19T00:31:18;99667.59;;;26.29;46.80
53868;BME280;41577;47.470;19.080;2022-08-19T00:31:35;99666.78;;;26.28;46.77
53868;BME280;41577;47.470;19.080;2022-08-19T00:31:50;99666.78;;;26.28;46.71
53868;BME280;41577;47.470;19.080;2022-08-19T00:32:06;99666.78;;;26.28;46.86
53868;BME280;41577;47.470;19.080;2022-08-19T00:32:21;99664.06;;;26.28;46.79
53868;BME280;41577;47.470;19.080;2022-08-19T00:32:36;99668.72;;;26.28;46.70
53868;BME280;41577;47.470;19.080;2022-08-19T00:32:50;99665.19;;;26.27;46.64
53868;BME280;41577;47.470;19.080;2022-08-19T00:33:05;99674.50;;;26.26;46.78
53868;BME280;41577;47.470;19.080;2022-08-19T00:33:22;99669.84;;;26.27;46.89
53868;BME280;41577;47.470;19.080;2022-08-19T00:33:36;99669.03;;;26.26;46.77
53868;BME280;41577;47.470;19.080;2022-08-19T00:33:51;99665.50;;;26.26;46.72
53868;BME280;41577;47.470;19.080;2022-08-19T00:34:05;99673.69;;;26.26;46.74
53868;BME280;41577;47.470;19.080;2022-08-19T00:34:20;99668.22;;;26.26;46.75
53868;BME280;41577;47.470;19.080;2022-08-19T00:34:35;99669.03;;;26.26;46.76
53868;BME280;41577;47.470;19.080;2022-08-19T00:34:49;99663.56;;;26.26;46.76
53868;BME280;41577;47.470;19.080;2022-08-19T00:35:08;99669.31;;;26.25;46.75
53868;BME280;41577;47.470;19.080;2022-08-19T00:35:23;99661.13;;;26.25;46.84
53868;BME280;41577;47.470;19.080;2022-08-19T00:35:38;99659.50;;;26.24;46.76
53868;BME280;41577;47.470;19.080;2022-08-19T00:35:54;99662.25;;;26.24;46.89
53868;BME280;41577;47.470;19.080;2022-08-19T00:36:11;99658.38;;;26.25;46.75
53868;BME280;41577;47.470;19.080;2022-08-19T00:36:26;99655.97;;;26.23;46.86
53868;BME280;41577;47.470;19.080;2022-08-19T00:36:43;99669.31;;;26.25;46.87
53868;BME280;41577;47.470;19.080;2022-08-19T00:36:57;99656.78;;;26.24;46.95
53868;BME280;41577;47.470;19.080;2022-08-19T00:37:11;99666.28;;;26.26;46.65
53868;BME280;41577;47.470;19.080;2022-08-19T00:37:26;99660.09;;;26.35;46.56
53868;BME280;41577;47.470;19.080;2022-08-19T00:37:40;99660.09;;;26.35;46.52
53868;BME280;41577;47.470;19.080;2022-08-19T00:37:56;99665.56;;;26.35;46.55
53868;BME280;41577;47.470;19.080;2022-08-19T00:38:10;99662.84;;;26.35;46.56
53868;BME280;41577;47.470;19.080;2022-08-19T00:38:26;99661.19;;;26.34;46.49
53868;BME280;41577;47.470;19.080;2022-08-19T00:38:41;99656.84;;;26.33;46.50
53868;BME280;41577;47.470;19.080;2022-08-19T00:38:56;99663.13;;;26.33;46.59
53868;BME280;41577;47.470;19.080;2022-08-19T00:39:11;99660.69;;;26.32;46.63
53868;BME280;41577;47.470;19.080;2022-08-19T00:39:27;99666.16;;;26.32;46.60
53868;BME280;41577;47.470;19.080;2022-08-19T00:39:41;99659.88;;;26.31;46.57
53868;BME280;41577;47.470;19.080;2022-08-19T00:39:56;99666.50;;;26.30;46.66
53868;BME280;41577;47.470;19.080;2022-08-19T00:40:12;99665.66;;;26.29;46.66
53868;BME280;41577;47.470;19.080;2022-08-19T00:40:26;99664.06;;;26.28;46.83
53868;BME280;41577;47.470;19.080;2022-08-19T00:40:43;99667.94;;;26.27;46.75
53868;BME280;41577;47.470;19.080;2022-08-19T00:40:57;99664.06;;;26.28;46.89
53868;BME280;41577;47.470;19.080;2022-08-19T00:41:14;99666.28;;;26.26;46.97
53868;BME280;41577;47.470;19.080;2022-08-19T00:41:28;99663.84;;;26.25;46.85
53868;BME280;41577;47.470;19.080;2022-08-19T00:41:42;99663.84;;;26.25;46.90
53868;BME280;41577;47.470;19.080;2022-08-19T00:41:58;99667.44;;;26.25;46.78
53868;BME280;41577;47.470;19.080;2022-08-19T00:42:13;99668.22;;;26.26;46.85
53868;BME280;41577;47.470;19.080;2022-08-19T00:42:29;99667.44;;;26.25;46.89
53868;BME280;41577;47.470;19.080;2022-08-19T00:42:44;99667.72;;;26.24;46.88
53868;BME280;41577;47.470;19.080;2022-08-19T00:42:58;99658.72;;;26.23;46.97
53868;BME280;41577;47.470;19.080;2022-08-19T00:43:14;99664.97;;;26.24;46.83
53868;BME280;41577;47.470;19.080;2022-08-19T00:43:32;99661.75;;;26.22;46.87
53868;BME280;41577;47.470;19.080;2022-08-19T00:43:57;99659.00;;;26.22;46.85
53868;BME280;41577;47.470;19.080;2022-08-19T00:44:14;99663.69;;;26.21;46.83
53868;BME280;41577;47.470;19.080;2022-08-19T00:44:29;99654.97;;;26.19;47.10
53868;BME280;41577;47.470;19.080;2022-08-19T00:44:44;99654.97;;;26.19;47.05
53868;BME280;41577;47.470;19.080;2022-08-19T00:44:58;99665.09;;;26.19;47.11
53868;BME280;41577;47.470;19.080;2022-08-19T00:45:15;99656.91;;;26.19;47.00
53868;BME280;41577;47.470;19.080;2022-08-19T00:45:31;99656.56;;;26.20;46.96
53868;BME280;41577;47.470;19.080;2022-08-19T00:45:48;99660.13;;;26.21;46.99
53868;BME280;41577;47.470;19.080;2022-08-19T00:46:03;99653.81;;;26.20;46.83
53868;BME280;41577;47.470;19.080;2022-08-19T00:46:18;99663.19;;;26.19;47.01
53868;BME280;41577;47.470;19.080;2022-08-19T00:46:35;99663.19;;;26.19;46.95
53868;BME280;41577;47.470;19.080;2022-08-19T00:46:51;99655.25;;;26.18;47.02
53868;BME280;41577;47.470;19.080;2022-08-19T00:47:08;99656.41;;;26.17;47.10
53868;BME280;41577;47.470;19.080;2022-08-19T00:47:22;99662.97;;;26.16;47.31
53868;BME280;41577;47.470;19.080;2022-08-19T00:47:36;99660.22;;;26.16;47.32
53868;BME280;41577;47.470;19.080;2022-08-19T00:47:50;99659.44;;;26.15;47.19
53868;BME280;41577;47.470;19.080;2022-08-19T00:48:06;99653.94;;;26.15;47.06
53868;BME280;41577;47.470;19.080;2022-08-19T00:48:21;99656.41;;;26.17;47.16
53868;BME280;41577;47.470;19.080;2022-08-19T00:48:36;99658.31;;;26.16;47.09
53868;BME280;41577;47.470;19.080;2022-08-19T00:48:50;99654.75;;;26.16;47.18
53868;BME280;41577;47.470;19.080;2022-08-19T00:49:09;99660.22;;;26.16;46.99
53868;BME280;41577;47.470;19.080;2022-08-19T00:49:29;99661.34;;;26.15;47.07
53868;BME280;41577;47.470;19.080;2022-08-19T00:49:48;99660.22;;;26.16;47.15
53868;BME280;41577;47.470;19.080;2022-08-19T00:50:08;99657.81;;;26.14;47.22
53868;BME280;41577;47.470;19.080;2022-08-19T00:50:24;99655.09;;;26.14;47.27
53868;BME280;41577;47.470;19.080;2022-08-19T00:50:40;99652.34;;;26.14;47.21
53868;BME280;41577;47.470;19.080;2022-08-19T00:50:57;99654.25;;;26.14;47.29
53868;BME280;41577;47.470;19.080;2022-08-19T00:51:12;99647.97;;;26.13;47.14
53868;BME280;41577;47.470;19.080;2022-08-19T00:51:29;99658.13;;;26.13;47.31
53868;BME280;41577;47.470;19.080;2022-08-19T00:51:49;99649.91;;;26.13;47.19
53868;BME280;41577;47.470;19.080;2022-08-19T00:52:07;99647.16;;;26.13;47.20
53868;BME280;41577;47.470;19.080;2022-08-19T00:52:24;99657.31;;;26.12;47.25
53868;BME280;41577;47.470;19.080;2022-08-19T00:52:42;99655.69;;;26.11;47.32
53868;BME280;41577;47.470;19.080;2022-08-19T00:52:59;99646.66;;;26.11;47.29
53868;BME280;41577;47.470;19.080;2022-08-19T00:53:20;99647.78;;;26.10;47.41
53868;BME280;41577;47.470;19.080;2022-08-19T00:53:37;99647.78;;;26.10;47.35
53868;BME280;41577;47.470;19.080;2022-08-19T00:53:54;99652.44;;;26.09;47.46
53868;BME280;41577;47.470;19.080;2022-08-19T00:54:10;99648.09;;;26.08;47.53
53868;BME280;41577;47.470;19.080;2022-08-19T00:54:25;99650.03;;;26.07;47.43
53868;BME280;41577;47.470;19.080;2022-08-19T00:54:41;99651.13;;;26.06;47.38
53868;BME280;41577;47.470;19.080;2022-08-19T00:54:57;99650.03;;;26.07;47.26
53868;BME280;41577;47.470;19.080;2022-08-19T00:55:14;99645.34;;;26.08;47.48
53868;BME280;41577;47.470;19.080;2022-08-19T00:55:29;99645.34;;;26.08;47.47
53868;BME280;41577;47.470;19.080;2022-08-19T00:55:47;99652.44;;;26.09;47.36
53868;BME280;41577;47.470;19.080;2022-08-19T00:56:02;99645.34;;;26.08;47.32
53868;BME280;41577;47.470;19.080;2022-08-19T00:56:19;99650.03;;;26.07;47.51
53868;BME280;41577;47.470;19.080;2022-08-19T00:56:35;99639.09;;;26.07;47.38
53868;BME280;41577;47.470;19.080;2022-08-19T00:56:51;99646.16;;;26.08;47.47
53868;BME280;41577;47.470;19.080;2022-08-19T00:57:09;99646.97;;;26.09;47.48
53868;BME280;41577;47.470;19.080;2022-08-19T00:57:28;99641.81;;;26.07;47.48
53868;BME280;41577;47.470;19.080;2022-08-19T00:57:53;99644.56;;;26.07;47.48
53868;BME280;41577;47.470;19.080;2022-08-19T00:58:13;99639.09;;;26.07;47.37
53868;BME280;41577;47.470;19.080;2022-08-19T00:58:32;99652.78;;;26.07;47.53
53868;BME280;41577;47.470;19.080;2022-08-19T00:58:46;99642.91;;;26.06;47.48
53868;BME280;41577;47.470;19.080;2022-08-19T00:59:04;99644.84;;;26.06;47.50
53868;BME280;41577;47.470;19.080;2022-08-19T00:59:23;99642.13;;;26.06;47.66
53868;BME280;41577;47.470;19.080;2022-08-19T00:59:39;99649.53;;;26.05;47.58
53868;BME280;41577;47.470;19.080;2022-08-19T00:59:56;99644.84;;;26.06;47.60
53868;BME280;41577;47.470;19.080;2022-08-19T01:00:14;99640.19;;;26.06;47.54
53868;BME280;41577;47.470;19.080;2022-08-19T01:00:29;99642.91;;;26.06;47.55
53868;BME280;41577;47.470;19.080;2022-08-19T01:00:44;99642.63;;;26.08;47.56
53868;BME280;41577;47.470;19.080;2022-08-19T01:00:59;99642.91;;;26.06;47.55
53868;BME280;41577;47.470;19.080;2022-08-19T01:01:14;99640.19;;;26.06;47.51
53868;BME280;41577;47.470;19.080;2022-08-19T01:01:29;99642.91;;;26.06;47.51
53868;BME280;41577;47.470;19.080;2022-08-19T01:01:44;99642.91;;;26.06;47.58
53868;BME280;41577;47.470;19.080;2022-08-19T01:01:59;99642.91;;;26.06;47.62
53868;BME280;41577;47.470;19.080;2022-08-19T01:02:16;99646.50;;;26.07;47.56
53868;BME280;41577;47.470;19.080;2022-08-19T01:02:32;99636.66;;;26.06;47.56
53868;BME280;41577;47.470;19.080;2022-08-19T01:02:46;99641.00;;;26.07;47.55
53868;BME280;41577;47.470;19.080;2022-08-19T01:03:01;99646.78;;;26.05;47.44
53868;BME280;41577;47.470;19.080;2022-08-19T01:03:19;99647.59;;;26.06;47.69
53868;BME280;41577;47.470;19.080;2022-08-19T01:03:33;99642.13;;;26.06;47.75
53868;BME280;41577;47.470;19.080;2022-08-19T01:03:48;99640.50;;;26.05;47.62
53868;BME280;41577;47.470;19.080;2022-08-19T01:04:03;99635.34;;;26.03;47.70
53868;BME280;41577;47.470;19.080;2022-08-19T01:04:18;99642.41;;;26.04;47.72
53868;BME280;41577;47.470;19.080;2022-08-19T01:04:33;99638.88;;;26.04;47.72
53868;BME280;41577;47.470;19.080;2022-08-19T01:04:47;99637.28;;;26.03;47.57
53868;BME280;41577;47.470;19.080;2022-08-19T01:05:03;99644.34;;;26.04;47.67
53868;BME280;41577;47.470;19.080;2022-08-19T01:05:23;99643.56;;;26.03;47.68
53868;BME280;41577;47.470;19.080;2022-08-19T01:05:39;99638.38;;;26.02;47.70
53868;BME280;41577;47.470;19.080;2022-08-19T01:05:55;99643.84;;;26.02;47.88
53868;BME280;41577;47.470;19.080;2022-08-19T01:06:10;99644.19;;;26.00;47.64
53868;BME280;41577;47.470;19.080;2022-08-19T01:06:25;99643.34;;;26.00;47.74
53868;BME280;41577;47.470;19.080;2022-08-19T01:06:41;99639.81;;;25.99;47.71
53868;BME280;41577;47.470;19.080;2022-08-19T01:06:57;99640.31;;;26.01;47.72
53868;BME280;41577;47.470;19.080;2022-08-19T01:07:13;99644.19;;;26.00;47.80
53868;BME280;41577;47.470;19.080;2022-08-19T01:07:28;99641.44;;;26.00;47.76
53868;BME280;41577;47.470;19.080;2022-08-19T01:07:43;99644.97;;;26.01;47.76
53868;BME280;41577;47.470;19.080;2022-08-19T01:08:01;99636.47;;;26.02;47.60
53868;BME280;41577;47.470;19.080;2022-08-19T01:08:18;99640.31;;;26.01;47.59
53868;BME280;41577;47.470;19.080;2022-08-19T01:08:33;99638.88;;;26.04;47.64
53868;BME280;41577;47.470;19.080;2022-08-19T01:08:50;99640.81;;;26.03;47.64
53868;BME280;41577;47.470;19.080;2022-08-19T01:09:06;99643.56;;;26.03;47.46
53868;BME280;41577;47.470;19.080;2022-08-19T01:09:21;99639.69;;;26.04;47.67
53868;BME280;41577;47.470;19.080;2022-08-19T01:09:35;99641.63;;;26.04;47.57
53868;BME280;41577;47.470;19.080;2022-08-19T01:09:50;99641.63;;;26.04;47.56
53868;BME280;41577;47.470;19.080;2022-08-19T01:10:07;99639.69;;;26.04;47.56
53868;BME280;41577;47.470;19.080;2022-08-19T01:10:25;99646.00;;;26.05;47.65
53868;BME280;41577;47.470;19.080;2022-08-19T01:10:42;99642.13;;;26.06;47.64
53868;BME280;41577;47.470;19.080;2022-08-19T01:10:59;99643.25;;;26.05;47.57
53868;BME280;41577;47.470;19.080;2022-08-19T01:11:15;99644.06;;;26.05;47.77
53868;BME280;41577;47.470;19.080;2022-08-19T01:11:30;99643.25;;;26.05;47.69
53868;BME280;41577;47.470;19.080;2022-08-19T01:11:48;99640.50;;;26.05;47.86
53868;BME280;41577;47.470;19.080;2022-08-19T01:12:04;99647.59;;;26.06;47.77
53868;BME280;41577;47.470;19.080;2022-08-19T01:12:19;99649.03;;;26.03;47.65
53868;BME280;41577;47.470;19.080;2022-08-19T01:12:35;99647.88;;;26.04;47.74
53868;BME280;41577;47.470;19.080;2022-08-19T01:12:52;99643.56;;;26.03;47.81
53868;BME280;41577;47.470;19.080;2022-08-19T01:13:08;99647.09;;;26.04;47.87
53868;BME280;41577;47.470;19.080;2022-08-19T01:13:25;99649.31;;;26.02;48.01
53868;BME280;41577;47.470;19.080;2022-08-19T01:13:40;99642.25;;;26.01;47.88
53868;BME280;41577;47.470;19.080;2022-08-19T01:13:54;99652.06;;;26.02;47.90
53868;BME280;41577;47.470;19.080;2022-08-19T01:14:10;99647.72;;;26.01;47.95
53868;BME280;41577;47.470;19.080;2022-08-19T01:14:25;99648.00;;;25.99;47.84
53868;BME280;41577;47.470;19.080;2022-08-19T01:14:40;99649.94;;;25.99;47.96
53868;BME280;41577;47.470;19.080;2022-08-19T01:14:55;99652.69;;;25.99;47.97
53868;BME280;41577;47.470;19.080;2022-08-19T01:15:11;99658.94;;;25.99;48.03
53868;BME280;41577;47.470;19.080;2022-08-19T01:15:29;99650.25;;;25.97;48.06
53868;BME280;41577;47.470;19.080;2022-08-19T01:15:48;99654.09;;;25.96;48.15
53868;BME280;41577;47.470;19.080;2022-08-19T01:16:06;99654.91;;;25.97;48.19
53868;BME280;41577;47.470;19.080;2022-08-19T01:16:23;99650.56;;;25.96;47.96
53868;BME280;41577;47.470;19.080;2022-08-19T01:16:39;99654.09;;;25.96;47.97
53868;BME280;41577;47.470;19.080;2022-08-19T01:16:55;99649.72;;;25.95;47.97
53868;BME280;41577;47.470;19.080;2022-08-19T01:17:13;99653.31;;;25.96;47.98
53868;BME280;41577;47.470;19.080;2022-08-19T01:17:29;99647.84;;;25.96;47.93
53868;BME280;41577;47.470;19.080;2022-08-19T01:17:45;99653.31;;;25.96;48.07
53868;BME280;41577;47.470;19.080;2022-08-19T01:18:00;99646.19;;;25.95;47.95
53868;BME280;41577;47.470;19.080;2022-08-19T01:18:17;99651.66;;;25.95;48.07
53868;BME280;41577;47.470;19.080;2022-08-19T01:18:35;99653.31;;;25.96;48.12
53868;BME280;41577;47.470;19.080;2022-08-19T01:18:52;99650.25;;;25.97;47.84
53868;BME280;41577;47.470;19.080;2022-08-19T01:19:10;99656.50;;;25.98;47.98
53868;BME280;41577;47.470;19.080;2022-08-19T01:19:31;99647.00;;;25.95;48.08
53868;BME280;41577;47.470;19.080;2022-08-19T01:19:49;99644.59;;;25.94;48.02
53868;BME280;41577;47.470;19.080;2022-08-19T01:20:06;99650.88;;;25.94;47.98
53868;BME280;41577;47.470;19.080;2022-08-19T01:20:23;99651.16;;;25.93;48.06
53868;BME280;41577;47.470;19.080;2022-08-19T01:20:37;99655.81;;;25.92;48.01
53868;BME280;41577;47.470;19.080;2022-08-19T01:20:54;99647.63;;;25.92;48.19
53868;BME280;41577;47.470;19.080;2022-08-19T01:21:15;99644.09;;;25.92;48.03
53868;BME280;41577;47.470;19.080;2022-08-19T01:21:34;99643.28;;;25.91;48.14
53868;BME280;41577;47.470;19.080;2022-08-19T01:21:57;99646.00;;;25.91;48.03
53868;BME280;41577;47.470;19.080;2022-08-19T01:22:19;99646.00;;;25.91;48.01
53868;BME280;41577;47.470;19.080;2022-08-19T01:22:43;99639.63;;;25.96;48.00
53868;BME280;41577;47.470;19.080;2022-08-19T01:22:58;99637.88;;;26.00;47.89